sensor_id;sensor_type;location;lat;lon;timestamp;P1;durP1;ratioP1;P2;durP2;ratioP2
4051;SDS011;2040;50.924;11.604;2022-10-16T00:01:21;0.80;;;0.60;;
4051;SDS011;2040;50.924;11.604;2022-10-16T00:03:49;1.20;;;0.90;;
4051;SDS011;2040;50.924;11.604;2022-10-16T00:06:16;0.83;;;0.70;;
4051;SDS011;2040;50.924;11.604;2022-10-16T00:08:43;4.63;;;0.63;;
4051;SDS011;2040;50.924;11.604;2022-10-16T00:11:11;0.60;;;0.60;;
4051;SDS011;2040;50.924;11.604;2022-10-16T00:13:39;0.63;;;0.60;;
4051;SDS011;2040;50.924;11.604;2022-10-16T00:16:05;2.80;;;0.90;;
4051;SDS011;2040;50.924;11.604;2022-10-16T00:18:31;0.77;;;0.60;;
4051;SDS011;2040;50.924;11.604;2022-10-16T00:21:04;1.43;;;0.70;;
4051;SDS011;2040;50.924;11.604;2022-10-16T00:23:32;0.83;;;0.67;;
4051;SDS011;2040;50.924;11.604;2022-10-16T00:25:59;0.80;;;0.80;;
4051;SDS011;2040;50.924;11.604;2022-10-16T00:28:26;0.60;;;0.60;;
4051;SDS011;2040;50.924;11.604;2022-10-16T00:30:52;0.60;;;0.60;;
4051;SDS011;2040;50.924;11.604;2022-10-16T00:33:18;0.60;;;0.60;;
4051;SDS011;2040;50.924;11.604;2022-10-16T00:35:44;0.60;;;0.60;;
4051;SDS011;2040;50.924;11.604;2022-10-16T00:38:10;1.33;;;0.70;;
4051;SDS011;2040;50.924;11.604;2022-10-16T00:40:35;9.10;;;0.93;;
4051;SDS011;2040;50.924;11.604;2022-10-16T00:43:01;0.60;;;0.60;;
4051;SDS011;2040;50.924;11.604;2022-10-16T00:45:26;1.10;;;0.60;;
4051;SDS011;2040;50.924;11.604;2022-10-16T00:47:52;10.03;;;0.90;;
4051;SDS011;2040;50.924;11.604;2022-10-16T00:50:30;0.80;;;0.80;;
4051;SDS011;2040;50.924;11.604;2022-10-16T00:52:58;0.80;;;0.70;;
4051;SDS011;2040;50.924;11.604;2022-10-16T00:55:25;1.50;;;0.80;;
4051;SDS011;2040;50.924;11.604;2022-10-16T00:57:52;0.60;;;0.60;;
4051;SDS011;2040;50.924;11.604;2022-10-16T01:00:23;1.03;;;0.60;;
4051;SDS011;2040;50.924;11.604;2022-10-16T01:02:54;0.60;;;0.60;;
4051;SDS011;2040;50.924;11.604;2022-10-16T01:05:22;0.80;;;0.80;;
4051;SDS011;2040;50.924;11.604;2022-10-16T01:10:29;1.00;;;0.80;;
4051;SDS011;2040;50.924;11.604;2022-10-16T01:13:07;0.97;;;0.60;;
4051;SDS011;2040;50.924;11.604;2022-10-16T01:15:55;0.80;;;0.80;;
4051;SDS011;2040;50.924;11.604;2022-10-16T01:21:01;0.93;;;0.70;;
4051;SDS011;2040;50.924;11.604;2022-10-16T01:23:43;2.40;;;0.80;;
4051;SDS011;2040;50.924;11.604;2022-10-16T01:26:44;1.40;;;0.83;;
4051;SDS011;2040;50.924;11.604;2022-10-16T01:29:32;0.87;;;0.70;;
4051;SDS011;2040;50.924;11.604;2022-10-16T01:32:05;0.80;;;0.70;;
4051;SDS011;2040;50.924;11.604;2022-10-16T01:34:46;0.80;;;0.80;;
4051;SDS011;2040;50.924;11.604;2022-10-16T01:37:19;0.70;;;0.60;;
4051;SDS011;2040;50.924;11.604;2022-10-16T01:39:52;0.60;;;0.60;;
4051;SDS011;2040;50.924;11.604;2022-10-16T01:42:24;0.60;;;0.60;;
4051;SDS011;2040;50.924;11.604;2022-10-16T01:44:56;1.00;;;0.60;;
4051;SDS011;2040;50.924;11.604;2022-10-16T01:47:24;0.60;;;0.60;;
4051;SDS011;2040;50.924;11.604;2022-10-16T01:49:51;0.77;;;0.77;;
4051;SDS011;2040;50.924;11.604;2022-10-16T01:52:19;3.00;;;0.83;;
4051;SDS011;2040;50.924;11.604;2022-10-16T01:54:49;1.20;;;0.80;;
4051;SDS011;2040;50.924;11.604;2022-10-16T01:57:18;1.13;;;0.70;;
4051;SDS011;2040;50.924;11.604;2022-10-16T01:59:47;0.70;;;0.67;;
4051;SDS011;2040;50.924;11.604;2022-10-16T02:02:15;1.40;;;0.73;;
4051;SDS011;2040;50.924;11.604;2022-10-16T02:04:49;0.80;;;0.80;;
4051;SDS011;2040;50.924;11.604;2022-10-16T02:07:18;0.93;;;0.70;;
4051;SDS011;2040;50.924;11.604;2022-10-16T02:09:44;0.70;;;0.70;;
4051;SDS011;2040;50.924;11.604;2022-10-16T02:12:12;6.53;;;0.90;;
4051;SDS011;2040;50.924;11.604;2022-10-16T02:14:44;0.80;;;0.60;;
4051;SDS011;2040;50.924;11.604;2022-10-16T02:17:11;1.47;;;0.80;;
4051;SDS011;2040;50.924;11.604;2022-10-16T02:19:42;0.90;;;0.70;;
4051;SDS011;2040;50.924;11.604;2022-10-16T02:22:09;0.60;;;0.60;;
4051;SDS011;2040;50.924;11.604;2022-10-16T02:27:30;1.20;;;0.60;;
4051;SDS011;2040;50.924;11.604;2022-10-16T02:32:38;5.90;;;1.03;;
4051;SDS011;2040;50.924;11.604;2022-10-16T02:35:07;2.93;;;0.90;;
4051;SDS011;2040;50.924;11.604;2022-10-16T02:37:34;2.80;;;0.90;;
4051;SDS011;2040;50.924;11.604;2022-10-16T02:40:02;1.03;;;0.90;;
4051;SDS011;2040;50.924;11.604;2022-10-16T02:42:34;1.10;;;1.00;;
4051;SDS011;2040;50.924;11.604;2022-10-16T02:45:01;0.70;;;0.70;;
4051;SDS011;2040;50.924;11.604;2022-10-16T02:47:28;1.23;;;0.60;;
4051;SDS011;2040;50.924;11.604;2022-10-16T02:49:54;0.70;;;0.70;;
4051;SDS011;2040;50.924;11.604;2022-10-16T02:52:20;0.80;;;0.80;;
4051;SDS011;2040;50.924;11.604;2022-10-16T02:54:45;1.00;;;0.90;;
4051;SDS011;2040;50.924;11.604;2022-10-16T02:57:11;1.13;;;1.03;;
4051;SDS011;2040;50.924;11.604;2022-10-16T02:59:36;1.07;;;0.80;;
4051;SDS011;2040;50.924;11.604;2022-10-16T03:02:02;1.30;;;0.90;;
4051;SDS011;2040;50.924;11.604;2022-10-16T03:04:28;1.83;;;1.03;;
4051;SDS011;2040;50.924;11.604;2022-10-16T03:06:53;6.43;;;0.80;;
4051;SDS011;2040;50.924;11.604;2022-10-16T03:09:19;1.00;;;0.90;;
4051;SDS011;2040;50.924;11.604;2022-10-16T03:11:45;4.77;;;0.80;;
4051;SDS011;2040;50.924;11.604;2022-10-16T03:14:10;3.33;;;0.83;;
4051;SDS011;2040;50.924;11.604;2022-10-16T03:16:36;1.53;;;1.10;;
4051;SDS011;2040;50.924;11.604;2022-10-16T03:19:01;2.20;;;0.83;;
4051;SDS011;2040;50.924;11.604;2022-10-16T03:21:27;1.50;;;0.90;;
4051;SDS011;2040;50.924;11.604;2022-10-16T03:23:53;1.20;;;1.00;;
4051;SDS011;2040;50.924;11.604;2022-10-16T03:26:18;0.80;;;0.70;;
4051;SDS011;2040;50.924;11.604;2022-10-16T03:28:44;2.40;;;1.00;;
4051;SDS011;2040;50.924;11.604;2022-10-16T03:31:09;1.63;;;0.73;;
4051;SDS011;2040;50.924;11.604;2022-10-16T03:33:35;1.03;;;0.77;;
4051;SDS011;2040;50.924;11.604;2022-10-16T03:36:00;1.27;;;0.90;;
4051;SDS011;2040;50.924;11.604;2022-10-16T03:38:26;0.83;;;0.83;;
4051;SDS011;2040;50.924;11.604;2022-10-16T03:40:52;2.27;;;0.90;;
4051;SDS011;2040;50.924;11.604;2022-10-16T03:43:17;0.73;;;0.73;;
4051;SDS011;2040;50.924;11.604;2022-10-16T03:45:43;2.30;;;0.90;;
4051;SDS011;2040;50.924;11.604;2022-10-16T03:48:08;2.10;;;0.90;;
4051;SDS011;2040;50.924;11.604;2022-10-16T03:50:34;2.33;;;0.90;;
4051;SDS011;2040;50.924;11.604;2022-10-16T03:53:00;0.70;;;0.70;;
4051;SDS011;2040;50.924;11.604;2022-10-16T03:55:25;1.50;;;0.90;;
4051;SDS011;2040;50.924;11.604;2022-10-16T03:57:51;0.73;;;0.67;;
4051;SDS011;2040;50.924;11.604;2022-10-16T04:00:16;1.20;;;1.10;;
4051;SDS011;2040;50.924;11.604;2022-10-16T04:02:42;0.70;;;0.70;;
4051;SDS011;2040;50.924;11.604;2022-10-16T04:05:08;0.67;;;0.67;;
4051;SDS011;2040;50.924;11.604;2022-10-16T04:07:34;1.00;;;0.80;;
4051;SDS011;2040;50.924;11.604;2022-10-16T04:09:59;0.83;;;0.70;;
4051;SDS011;2040;50.924;11.604;2022-10-16T04:12:25;1.40;;;1.00;;
4051;SDS011;2040;50.924;11.604;2022-10-16T04:14:51;1.23;;;1.00;;
4051;SDS011;2040;50.924;11.604;2022-10-16T04:17:17;0.87;;;0.80;;
4051;SDS011;2040;50.924;11.604;2022-10-16T04:19:42;0.87;;;0.70;;
4051;SDS011;2040;50.924;11.604;2022-10-16T04:22:08;0.70;;;0.60;;
4051;SDS011;2040;50.924;11.604;2022-10-16T04:24:34;0.70;;;0.70;;
4051;SDS011;2040;50.924;11.604;2022-10-16T04:26:59;1.33;;;0.77;;
4051;SDS011;2040;50.924;11.604;2022-10-16T04:29:25;0.87;;;0.83;;
4051;SDS011;2040;50.924;11.604;2022-10-16T04:31:50;2.27;;;1.00;;
4051;SDS011;2040;50.924;11.604;2022-10-16T04:34:16;0.80;;;0.80;;
4051;SDS011;2040;50.924;11.604;2022-10-16T04:36:42;1.03;;;0.90;;
4051;SDS011;2040;50.924;11.604;2022-10-16T04:39:07;2.60;;;0.87;;
4051;SDS011;2040;50.924;11.604;2022-10-16T04:41:33;0.73;;;0.63;;
4051;SDS011;2040;50.924;11.604;2022-10-16T04:43:59;1.27;;;1.00;;
4051;SDS011;2040;50.924;11.604;2022-10-16T04:46:24;1.73;;;1.27;;
4051;SDS011;2040;50.924;11.604;2022-10-16T04:48:50;1.60;;;1.03;;
4051;SDS011;2040;50.924;11.604;2022-10-16T04:51:15;1.23;;;0.87;;
4051;SDS011;2040;50.924;11.604;2022-10-16T04:53:41;2.13;;;1.20;;
4051;SDS011;2040;50.924;11.604;2022-10-16T04:56:07;1.30;;;0.90;;
4051;SDS011;2040;50.924;11.604;2022-10-16T04:58:32;1.47;;;1.00;;
4051;SDS011;2040;50.924;11.604;2022-10-16T05:00:58;1.40;;;1.27;;
4051;SDS011;2040;50.924;11.604;2022-10-16T05:03:23;1.80;;;1.47;;
4051;SDS011;2040;50.924;11.604;2022-10-16T05:05:49;1.70;;;1.10;;
4051;SDS011;2040;50.924;11.604;2022-10-16T05:08:15;3.23;;;1.87;;
4051;SDS011;2040;50.924;11.604;2022-10-16T05:10:42;1.70;;;1.13;;
4051;SDS011;2040;50.924;11.604;2022-10-16T05:13:08;1.07;;;0.97;;
4051;SDS011;2040;50.924;11.604;2022-10-16T05:15:34;6.33;;;1.00;;
4051;SDS011;2040;50.924;11.604;2022-10-16T05:18:00;0.97;;;0.90;;
4051;SDS011;2040;50.924;11.604;2022-10-16T05:20:25;1.27;;;1.10;;
4051;SDS011;2040;50.924;11.604;2022-10-16T05:22:51;1.53;;;1.17;;
4051;SDS011;2040;50.924;11.604;2022-10-16T05:25:16;1.50;;;1.10;;
4051;SDS011;2040;50.924;11.604;2022-10-16T05:27:43;0.80;;;0.80;;
4051;SDS011;2040;50.924;11.604;2022-10-16T05:30:11;4.87;;;1.23;;
4051;SDS011;2040;50.924;11.604;2022-10-16T05:32:37;1.17;;;1.07;;
4051;SDS011;2040;50.924;11.604;2022-10-16T05:35:03;4.30;;;1.10;;
4051;SDS011;2040;50.924;11.604;2022-10-16T05:37:29;2.90;;;1.30;;
4051;SDS011;2040;50.924;11.604;2022-10-16T05:39:54;4.23;;;1.33;;
4051;SDS011;2040;50.924;11.604;2022-10-16T05:42:20;1.43;;;1.20;;
4051;SDS011;2040;50.924;11.604;2022-10-16T05:44:45;1.40;;;1.00;;
4051;SDS011;2040;50.924;11.604;2022-10-16T05:47:12;1.50;;;1.30;;
4051;SDS011;2040;50.924;11.604;2022-10-16T05:49:37;1.67;;;1.10;;
4051;SDS011;2040;50.924;11.604;2022-10-16T05:52:03;2.73;;;1.27;;
4051;SDS011;2040;50.924;11.604;2022-10-16T05:54:29;1.57;;;1.40;;
4051;SDS011;2040;50.924;11.604;2022-10-16T05:56:54;2.70;;;0.90;;
4051;SDS011;2040;50.924;11.604;2022-10-16T05:59:20;2.90;;;1.30;;
4051;SDS011;2040;50.924;11.604;2022-10-16T06:01:46;1.93;;;1.00;;
4051;SDS011;2040;50.924;11.604;2022-10-16T06:04:11;3.80;;;1.27;;
4051;SDS011;2040;50.924;11.604;2022-10-16T06:06:37;3.50;;;1.30;;
4051;SDS011;2040;50.924;11.604;2022-10-16T06:09:03;1.00;;;1.00;;
4051;SDS011;2040;50.924;11.604;2022-10-16T06:11:30;0.80;;;0.80;;
4051;SDS011;2040;50.924;11.604;2022-10-16T06:13:57;0.93;;;0.87;;
4051;SDS011;2040;50.924;11.604;2022-10-16T06:16:27;2.33;;;0.80;;
4051;SDS011;2040;50.924;11.604;2022-10-16T06:18:53;1.63;;;0.73;;
4051;SDS011;2040;50.924;11.604;2022-10-16T06:21:20;1.23;;;1.10;;
4051;SDS011;2040;50.924;11.604;2022-10-16T06:23:49;0.90;;;0.80;;
4051;SDS011;2040;50.924;11.604;2022-10-16T06:26:18;2.30;;;0.60;;
4051;SDS011;2040;50.924;11.604;2022-10-16T06:28:45;0.93;;;0.83;;
4051;SDS011;2040;50.924;11.604;2022-10-16T06:31:11;1.07;;;0.80;;
4051;SDS011;2040;50.924;11.604;2022-10-16T06:33:37;1.23;;;0.80;;
4051;SDS011;2040;50.924;11.604;2022-10-16T06:36:23;0.70;;;0.70;;
4051;SDS011;2040;50.924;11.604;2022-10-16T06:38:49;0.80;;;0.80;;
4051;SDS011;2040;50.924;11.604;2022-10-16T06:41:19;2.30;;;0.73;;
4051;SDS011;2040;50.924;11.604;2022-10-16T06:43:46;0.90;;;0.90;;
4051;SDS011;2040;50.924;11.604;2022-10-16T06:46:13;0.93;;;0.70;;
4051;SDS011;2040;50.924;11.604;2022-10-16T06:48:41;0.80;;;0.80;;
4051;SDS011;2040;50.924;11.604;2022-10-16T06:51:09;1.00;;;0.87;;
4051;SDS011;2040;50.924;11.604;2022-10-16T06:53:39;0.70;;;0.70;;
4051;SDS011;2040;50.924;11.604;2022-10-16T06:56:08;0.70;;;0.70;;
4051;SDS011;2040;50.924;11.604;2022-10-16T06:58:35;4.47;;;0.80;;
4051;SDS011;2040;50.924;11.604;2022-10-16T07:01:01;0.60;;;0.57;;
4051;SDS011;2040;50.924;11.604;2022-10-16T07:03:26;0.90;;;0.70;;
4051;SDS011;2040;50.924;11.604;2022-10-16T07:05:52;0.80;;;0.60;;
4051;SDS011;2040;50.924;11.604;2022-10-16T07:08:17;0.90;;;0.53;;
4051;SDS011;2040;50.924;11.604;2022-10-16T07:10:43;2.17;;;0.63;;
4051;SDS011;2040;50.924;11.604;2022-10-16T07:13:09;0.60;;;0.60;;
4051;SDS011;2040;50.924;11.604;2022-10-16T07:15:38;0.60;;;0.60;;
4051;SDS011;2040;50.924;11.604;2022-10-16T07:18:03;0.90;;;0.63;;
4051;SDS011;2040;50.924;11.604;2022-10-16T07:20:29;1.23;;;0.60;;
4051;SDS011;2040;50.924;11.604;2022-10-16T07:22:55;0.50;;;0.50;;
4051;SDS011;2040;50.924;11.604;2022-10-16T07:25:20;0.83;;;0.60;;
4051;SDS011;2040;50.924;11.604;2022-10-16T07:27:46;0.60;;;0.60;;
4051;SDS011;2040;50.924;11.604;2022-10-16T07:30:11;2.40;;;0.73;;
4051;SDS011;2040;50.924;11.604;2022-10-16T07:32:37;2.30;;;0.70;;
4051;SDS011;2040;50.924;11.604;2022-10-16T07:35:03;0.77;;;0.77;;
4051;SDS011;2040;50.924;11.604;2022-10-16T07:37:29;0.70;;;0.67;;
4051;SDS011;2040;50.924;11.604;2022-10-16T07:39:55;0.80;;;0.60;;
4051;SDS011;2040;50.924;11.604;2022-10-16T07:42:20;0.77;;;0.67;;
4051;SDS011;2040;50.924;11.604;2022-10-16T07:44:46;0.83;;;0.60;;
4051;SDS011;2040;50.924;11.604;2022-10-16T07:47:12;3.23;;;0.70;;
4051;SDS011;2040;50.924;11.604;2022-10-16T07:49:37;1.27;;;0.60;;
4051;SDS011;2040;50.924;11.604;2022-10-16T07:52:03;0.70;;;0.70;;
4051;SDS011;2040;50.924;11.604;2022-10-16T07:54:28;0.70;;;0.70;;
4051;SDS011;2040;50.924;11.604;2022-10-16T07:56:54;1.27;;;0.70;;
4051;SDS011;2040;50.924;11.604;2022-10-16T07:59:20;0.60;;;0.60;;
4051;SDS011;2040;50.924;11.604;2022-10-16T08:01:45;4.73;;;0.87;;
4051;SDS011;2040;50.924;11.604;2022-10-16T08:04:11;1.23;;;0.70;;
4051;SDS011;2040;50.924;11.604;2022-10-16T08:06:37;2.33;;;0.70;;
4051;SDS011;2040;50.924;11.604;2022-10-16T08:09:05;0.80;;;0.73;;
4051;SDS011;2040;50.924;11.604;2022-10-16T08:11:31;0.87;;;0.87;;
4051;SDS011;2040;50.924;11.604;2022-10-16T08:13:57;0.60;;;0.60;;
4051;SDS011;2040;50.924;11.604;2022-10-16T08:16:22;0.60;;;0.60;;
4051;SDS011;2040;50.924;11.604;2022-10-16T08:18:48;2.20;;;0.80;;
4051;SDS011;2040;50.924;11.604;2022-10-16T08:21:16;0.80;;;0.80;;
4051;SDS011;2040;50.924;11.604;2022-10-16T08:23:43;1.00;;;0.87;;
4051;SDS011;2040;50.924;11.604;2022-10-16T08:26:09;0.70;;;0.70;;
4051;SDS011;2040;50.924;11.604;2022-10-16T08:28:36;0.80;;;0.70;;
4051;SDS011;2040;50.924;11.604;2022-10-16T08:31:06;2.20;;;1.33;;
4051;SDS011;2040;50.924;11.604;2022-10-16T08:33:31;1.20;;;0.90;;
4051;SDS011;2040;50.924;11.604;2022-10-16T08:35:57;0.90;;;0.90;;
4051;SDS011;2040;50.924;11.604;2022-10-16T08:38:22;0.80;;;0.80;;
4051;SDS011;2040;50.924;11.604;2022-10-16T08:40:48;1.10;;;0.97;;
4051;SDS011;2040;50.924;11.604;2022-10-16T08:51:00;1.10;;;1.00;;
4051;SDS011;2040;50.924;11.604;2022-10-16T08:53:29;1.70;;;1.10;;
4051;SDS011;2040;50.924;11.604;2022-10-16T08:56:03;1.50;;;1.40;;
4051;SDS011;2040;50.924;11.604;2022-10-16T08:58:29;1.13;;;1.00;;
4051;SDS011;2040;50.924;11.604;2022-10-16T09:00:56;1.13;;;1.03;;
4051;SDS011;2040;50.924;11.604;2022-10-16T09:03:40;1.23;;;0.97;;
4051;SDS011;2040;50.924;11.604;2022-10-16T09:11:50;1.90;;;1.27;;
4051;SDS011;2040;50.924;11.604;2022-10-16T09:14:35;1.30;;;1.20;;
4051;SDS011;2040;50.924;11.604;2022-10-16T09:20:13;1.30;;;1.20;;
4051;SDS011;2040;50.924;11.604;2022-10-16T09:23:08;1.40;;;1.30;;
4051;SDS011;2040;50.924;11.604;2022-10-16T09:25:42;1.30;;;1.20;;
4051;SDS011;2040;50.924;11.604;2022-10-16T09:28:10;2.70;;;1.20;;
4051;SDS011;2040;50.924;11.604;2022-10-16T09:30:36;5.40;;;1.60;;
4051;SDS011;2040;50.924;11.604;2022-10-16T09:33:04;1.53;;;1.40;;
4051;SDS011;2040;50.924;11.604;2022-10-16T09:35:36;2.60;;;1.30;;
4051;SDS011;2040;50.924;11.604;2022-10-16T09:38:06;1.37;;;1.20;;
4051;SDS011;2040;50.924;11.604;2022-10-16T09:40:37;5.80;;;1.50;;
4051;SDS011;2040;50.924;11.604;2022-10-16T09:46:03;1.20;;;1.10;;
4051;SDS011;2040;50.924;11.604;2022-10-16T09:48:43;1.53;;;1.43;;
4051;SDS011;2040;50.924;11.604;2022-10-16T09:51:29;1.60;;;1.43;;
4051;SDS011;2040;50.924;11.604;2022-10-16T09:54:01;1.30;;;1.20;;
4051;SDS011;2040;50.924;11.604;2022-10-16T09:56:34;1.80;;;1.20;;
4051;SDS011;2040;50.924;11.604;2022-10-16T10:01:39;2.00;;;1.10;;
4051;SDS011;2040;50.924;11.604;2022-10-16T10:04:07;1.37;;;1.20;;
4051;SDS011;2040;50.924;11.604;2022-10-16T10:06:35;0.80;;;0.80;;
4051;SDS011;2040;50.924;11.604;2022-10-16T10:09:06;1.03;;;0.97;;
4051;SDS011;2040;50.924;11.604;2022-10-16T10:11:59;3.00;;;1.27;;
4051;SDS011;2040;50.924;11.604;2022-10-16T10:17:28;1.17;;;1.00;;
4051;SDS011;2040;50.924;11.604;2022-10-16T10:19:48;1.20;;;1.10;;
4051;SDS011;2040;50.924;11.604;2022-10-16T10:22:21;1.13;;;1.03;;
4051;SDS011;2040;50.924;11.604;2022-10-16T10:30:23;1.27;;;1.17;;
4051;SDS011;2040;50.924;11.604;2022-10-16T10:38:47;1.87;;;1.00;;
4051;SDS011;2040;50.924;11.604;2022-10-16T10:46:34;1.77;;;1.00;;
4051;SDS011;2040;50.924;11.604;2022-10-16T11:07:52;1.00;;;0.83;;
4051;SDS011;2040;50.924;11.604;2022-10-16T11:10:40;3.63;;;1.00;;
4051;SDS011;2040;50.924;11.604;2022-10-16T11:15:51;1.07;;;0.87;;
4051;SDS011;2040;50.924;11.604;2022-10-16T11:19:09;1.37;;;1.10;;
4051;SDS011;2040;50.924;11.604;2022-10-16T11:21:15;1.03;;;0.93;;
4051;SDS011;2040;50.924;11.604;2022-10-16T11:23:56;1.83;;;1.30;;
4051;SDS011;2040;50.924;11.604;2022-10-16T11:26:30;1.07;;;0.97;;
4051;SDS011;2040;50.924;11.604;2022-10-16T11:28:59;1.00;;;1.00;;
4051;SDS011;2040;50.924;11.604;2022-10-16T11:36:57;1.00;;;1.00;;
4051;SDS011;2040;50.924;11.604;2022-10-16T11:39:24;0.80;;;0.80;;
4051;SDS011;2040;50.924;11.604;2022-10-16T11:41:52;2.40;;;0.77;;
4051;SDS011;2040;50.924;11.604;2022-10-16T11:49:59;1.23;;;0.73;;
4051;SDS011;2040;50.924;11.604;2022-10-16T11:55:18;1.00;;;0.90;;
4051;SDS011;2040;50.924;11.604;2022-10-16T11:57:51;4.07;;;0.90;;
4051;SDS011;2040;50.924;11.604;2022-10-16T12:00:27;1.23;;;1.10;;
4051;SDS011;2040;50.924;11.604;2022-10-16T12:03:11;1.13;;;0.97;;
4051;SDS011;2040;50.924;11.604;2022-10-16T12:05:58;0.90;;;0.70;;
4051;SDS011;2040;50.924;11.604;2022-10-16T12:08:36;0.70;;;0.70;;
4051;SDS011;2040;50.924;11.604;2022-10-16T12:13:49;0.60;;;0.60;;
4051;SDS011;2040;50.924;11.604;2022-10-16T12:18:42;0.80;;;0.80;;
4051;SDS011;2040;50.924;11.604;2022-10-16T12:21:09;1.10;;;0.70;;
4051;SDS011;2040;50.924;11.604;2022-10-16T12:23:50;1.50;;;0.90;;
4051;SDS011;2040;50.924;11.604;2022-10-16T12:26:51;0.77;;;0.77;;
4051;SDS011;2040;50.924;11.604;2022-10-16T12:29:13;1.20;;;0.77;;
4051;SDS011;2040;50.924;11.604;2022-10-16T12:31:48;1.00;;;0.90;;
4051;SDS011;2040;50.924;11.604;2022-10-16T12:34:28;1.30;;;0.87;;
4051;SDS011;2040;50.924;11.604;2022-10-16T12:37:08;1.00;;;0.87;;
4051;SDS011;2040;50.924;11.604;2022-10-16T12:39:55;1.00;;;0.77;;
4051;SDS011;2040;50.924;11.604;2022-10-16T12:44:47;1.10;;;0.80;;
4051;SDS011;2040;50.924;11.604;2022-10-16T12:49:58;1.07;;;0.70;;
4051;SDS011;2040;50.924;11.604;2022-10-16T12:52:34;1.47;;;0.80;;
4051;SDS011;2040;50.924;11.604;2022-10-16T12:55:02;1.00;;;0.97;;
4051;SDS011;2040;50.924;11.604;2022-10-16T13:10:55;2.10;;;0.80;;
4051;SDS011;2040;50.924;11.604;2022-10-16T13:14:33;1.07;;;0.90;;
4051;SDS011;2040;50.924;11.604;2022-10-16T13:16:49;2.40;;;0.70;;
4051;SDS011;2040;50.924;11.604;2022-10-16T13:27:54;1.03;;;0.80;;
4051;SDS011;2040;50.924;11.604;2022-10-16T13:30:23;0.70;;;0.70;;
4051;SDS011;2040;50.924;11.604;2022-10-16T13:33:15;0.60;;;0.60;;
4051;SDS011;2040;50.924;11.604;2022-10-16T13:35:51;1.00;;;0.60;;
4051;SDS011;2040;50.924;11.604;2022-10-16T13:38:29;1.10;;;0.63;;
4051;SDS011;2040;50.924;11.604;2022-10-16T13:41:13;1.00;;;0.73;;
4051;SDS011;2040;50.924;11.604;2022-10-16T13:43:43;4.20;;;0.93;;
4051;SDS011;2040;50.924;11.604;2022-10-16T13:46:15;0.70;;;0.60;;
4051;SDS011;2040;50.924;11.604;2022-10-16T13:48:44;0.90;;;0.70;;
4051;SDS011;2040;50.924;11.604;2022-10-16T13:51:20;0.87;;;0.70;;
4051;SDS011;2040;50.924;11.604;2022-10-16T13:53:46;0.70;;;0.70;;
4051;SDS011;2040;50.924;11.604;2022-10-16T13:56:13;0.80;;;0.80;;
4051;SDS011;2040;50.924;11.604;2022-10-16T13:58:44;0.80;;;0.60;;
4051;SDS011;2040;50.924;11.604;2022-10-16T14:01:20;0.77;;;0.70;;
4051;SDS011;2040;50.924;11.604;2022-10-16T14:03:50;0.60;;;0.60;;
4051;SDS011;2040;50.924;11.604;2022-10-16T14:06:17;2.60;;;1.37;;
4051;SDS011;2040;50.924;11.604;2022-10-16T14:09:05;0.60;;;0.50;;
4051;SDS011;2040;50.924;11.604;2022-10-16T14:11:48;0.97;;;0.60;;
4051;SDS011;2040;50.924;11.604;2022-10-16T14:14:21;5.83;;;0.70;;
4051;SDS011;2040;50.924;11.604;2022-10-16T14:16:48;3.70;;;0.70;;
4051;SDS011;2040;50.924;11.604;2022-10-16T14:19:18;0.83;;;0.70;;
4051;SDS011;2040;50.924;11.604;2022-10-16T14:21:47;0.70;;;0.60;;
4051;SDS011;2040;50.924;11.604;2022-10-16T14:24:22;0.63;;;0.60;;
4051;SDS011;2040;50.924;11.604;2022-10-16T14:26:57;2.20;;;0.80;;
4051;SDS011;2040;50.924;11.604;2022-10-16T14:29:24;0.80;;;0.67;;
4051;SDS011;2040;50.924;11.604;2022-10-16T14:32:04;0.87;;;0.80;;
4051;SDS011;2040;50.924;11.604;2022-10-16T14:34:37;0.70;;;0.70;;
4051;SDS011;2040;50.924;11.604;2022-10-16T14:39:53;0.93;;;0.83;;
4051;SDS011;2040;50.924;11.604;2022-10-16T14:42:21;1.47;;;0.60;;
4051;SDS011;2040;50.924;11.604;2022-10-16T14:44:50;0.90;;;0.70;;
4051;SDS011;2040;50.924;11.604;2022-10-16T14:47:18;1.43;;;0.90;;
4051;SDS011;2040;50.924;11.604;2022-10-16T14:49:49;2.27;;;1.00;;
4051;SDS011;2040;50.924;11.604;2022-10-16T14:52:15;1.03;;;0.83;;
4051;SDS011;2040;50.924;11.604;2022-10-16T14:54:41;0.93;;;0.60;;
4051;SDS011;2040;50.924;11.604;2022-10-16T14:57:17;1.30;;;0.70;;
4051;SDS011;2040;50.924;11.604;2022-10-16T14:59:44;2.33;;;0.70;;
4051;SDS011;2040;50.924;11.604;2022-10-16T15:04:50;1.30;;;1.07;;
4051;SDS011;2040;50.924;11.604;2022-10-16T15:07:16;1.03;;;0.77;;
4051;SDS011;2040;50.924;11.604;2022-10-16T15:09:41;0.80;;;0.70;;
4051;SDS011;2040;50.924;11.604;2022-10-16T15:12:07;0.90;;;0.70;;
4051;SDS011;2040;50.924;11.604;2022-10-16T15:14:33;2.70;;;0.70;;
4051;SDS011;2040;50.924;11.604;2022-10-16T15:16:58;0.70;;;0.70;;
4051;SDS011;2040;50.924;11.604;2022-10-16T15:19:24;0.70;;;0.60;;
4051;SDS011;2040;50.924;11.604;2022-10-16T15:21:49;0.70;;;0.70;;
4051;SDS011;2040;50.924;11.604;2022-10-16T15:24:15;2.90;;;0.90;;
4051;SDS011;2040;50.924;11.604;2022-10-16T15:26:41;0.60;;;0.50;;
4051;SDS011;2040;50.924;11.604;2022-10-16T15:29:07;0.80;;;0.80;;
4051;SDS011;2040;50.924;11.604;2022-10-16T15:31:33;2.20;;;0.70;;
4051;SDS011;2040;50.924;11.604;2022-10-16T15:33:59;1.40;;;0.80;;
4051;SDS011;2040;50.924;11.604;2022-10-16T15:36:30;0.70;;;0.60;;
4051;SDS011;2040;50.924;11.604;2022-10-16T15:39:02;0.90;;;0.70;;
4051;SDS011;2040;50.924;11.604;2022-10-16T15:41:35;0.90;;;0.70;;
4051;SDS011;2040;50.924;11.604;2022-10-16T15:44:01;0.60;;;0.60;;
4051;SDS011;2040;50.924;11.604;2022-10-16T15:46:26;2.07;;;0.67;;
4051;SDS011;2040;50.924;11.604;2022-10-16T15:48:55;0.77;;;0.70;;
4051;SDS011;2040;50.924;11.604;2022-10-16T15:51:23;0.93;;;0.80;;
4051;SDS011;2040;50.924;11.604;2022-10-16T15:53:49;0.93;;;0.80;;
4051;SDS011;2040;50.924;11.604;2022-10-16T15:56:16;0.70;;;0.70;;
4051;SDS011;2040;50.924;11.604;2022-10-16T15:58:42;1.27;;;0.60;;
4051;SDS011;2040;50.924;11.604;2022-10-16T16:01:08;2.50;;;0.70;;
4051;SDS011;2040;50.924;11.604;2022-10-16T16:03:36;4.63;;;0.70;;
4051;SDS011;2040;50.924;11.604;2022-10-16T16:06:05;0.90;;;0.70;;
4051;SDS011;2040;50.924;11.604;2022-10-16T16:08:35;0.97;;;0.80;;
4051;SDS011;2040;50.924;11.604;2022-10-16T16:11:02;0.80;;;0.80;;
4051;SDS011;2040;50.924;11.604;2022-10-16T16:13:35;0.70;;;0.70;;
4051;SDS011;2040;50.924;11.604;2022-10-16T16:16:13;0.70;;;0.70;;
4051;SDS011;2040;50.924;11.604;2022-10-16T16:18:40;0.80;;;0.70;;
4051;SDS011;2040;50.924;11.604;2022-10-16T16:21:06;1.33;;;0.80;;
4051;SDS011;2040;50.924;11.604;2022-10-16T16:23:32;1.43;;;0.87;;
4051;SDS011;2040;50.924;11.604;2022-10-16T16:28:45;0.70;;;0.70;;
4051;SDS011;2040;50.924;11.604;2022-10-16T16:31:11;0.97;;;0.93;;
4051;SDS011;2040;50.924;11.604;2022-10-16T16:33:37;1.10;;;0.80;;
4051;SDS011;2040;50.924;11.604;2022-10-16T16:36:04;0.73;;;0.70;;
4051;SDS011;2040;50.924;11.604;2022-10-16T16:38:31;2.63;;;0.90;;
4051;SDS011;2040;50.924;11.604;2022-10-16T16:40:57;1.10;;;0.80;;
4051;SDS011;2040;50.924;11.604;2022-10-16T16:43:26;0.60;;;0.60;;
4051;SDS011;2040;50.924;11.604;2022-10-16T16:45:53;0.80;;;0.80;;
4051;SDS011;2040;50.924;11.604;2022-10-16T16:48:19;1.17;;;0.83;;
4051;SDS011;2040;50.924;11.604;2022-10-16T16:50:45;3.67;;;1.60;;
4051;SDS011;2040;50.924;11.604;2022-10-16T16:53:11;5.50;;;2.50;;
4051;SDS011;2040;50.924;11.604;2022-10-16T16:55:36;4.93;;;2.23;;
4051;SDS011;2040;50.924;11.604;2022-10-16T16:58:02;1.80;;;1.03;;
4051;SDS011;2040;50.924;11.604;2022-10-16T17:00:28;1.37;;;1.20;;
4051;SDS011;2040;50.924;11.604;2022-10-16T17:02:55;6.03;;;1.00;;
4051;SDS011;2040;50.924;11.604;2022-10-16T17:05:22;0.70;;;0.60;;
4051;SDS011;2040;50.924;11.604;2022-10-16T17:07:48;0.93;;;0.87;;
4051;SDS011;2040;50.924;11.604;2022-10-16T17:10:13;1.53;;;0.97;;
4051;SDS011;2040;50.924;11.604;2022-10-16T17:12:39;2.37;;;0.90;;
4051;SDS011;2040;50.924;11.604;2022-10-16T17:15:05;0.80;;;0.80;;
4051;SDS011;2040;50.924;11.604;2022-10-16T17:17:32;2.50;;;1.40;;
4051;SDS011;2040;50.924;11.604;2022-10-16T17:19:57;2.10;;;0.87;;